首页
METAR-TAF:

METAR-TAF

机场 :

Tallahassee Regional Airport

塔拉哈西, 佛罗里达州, 美国

纬度: 30-23-35N, 经度: 084-21-12W, 海拔: 24米

当前天气观测

该预报发布于48分钟前的23:53 UTC
风速5节,风向东转东北
温度 22°C
湿度 94%
气压 1013 hPa
能見度: 16.1公里
多云层高于3000英尺, 积雨云.
阴天层高于4200英尺
雷暴

METAR: KTLH 262353Z 06005KT 10SM TS BKN030CB OVC042 22/21 A2992 RMK AO2 LTG DSNT NE AND SW RAE37 TSE26B50 SLP129 OCNL LTGIC SW-W TS SW-W MOV N P0000 60137 T02220206 10261 20222 53014

时间: 20:41 (00:41 UTC)

预报

该预报发布于1小时和21分钟前的23:20 UTC
预报有效从27日的 00点(UTC)到 27日的 24点(UTC)
风速5节,风向
能見度: 10公里
多云层高于4000英尺
附近有阵雨
从 27日的 0200点(UTC)
风速5节,风向东转东北
能見度: 10公里
多云层高于1500英尺
从 27日的 0900点(UTC)
风速5节,风向东转东北
能見度: 10公里
阴天层高于900英尺
从 27日的 1500点(UTC)
风速5节,风向东转东北
能見度: 10公里
多云层高于2000英尺
从 27日的 1900点(UTC)
风速8节,风向南转南东
能見度: 10公里
散云层高于4000英尺

TAF: KTLH 262320Z 2700/2724 08005KT P6SM VCSH BKN040 FM270200 07005KT P6SM BKN015 FM270900 06005KT P6SM OVC009 FM271500 06005KT P6SM BKN020 FM271900 16008KT P6SM SCT040

超过4000个机场的气象观测和天气预报(METAR&TAF报告)。

可查询的气象台以黄色和红色小点在地图上表示。

将鼠标移到小点上方,可查看气象台名称。

然后点击查看天气观测和预报。

如需切换地图:点击带黑十字的绿色按钮放大地图;点击带横线的绿色按钮缩小地图;或者点击绿色箭头查看邻近地区的地图。


METAR-TAF: